Terminal Aerodrome Forecast
Issued by NWS Tulsa, OK

Home | Current Version | Previous Version | Text Only | Print | Product List | Glossary On
Versions: 1 2 3 4 5 6 7 8 9 10 11 12 13 14 15 16 17 18
601
FTUS44 KTSA 192336
TAFTUL
TAF
KTUL 192336Z 2000/2024 15012KT P6SM OVC035
      TEMPO 2008/2012 3SM TSRA BR BKN020CB
     FM201200 18008KT P6SM SCT030 BKN100 PROB30 2012/2015 5SM -RA BR
      BKN030
     FM202000 18010KT P6SM SCT150 BKN250=

USA.gov is the U.S. government's official web portal to all federal, state and local government web resources and services.